sensor_id;sensor_type;location;lat;lon;timestamp;pressure;altitude;pressure_sealevel;temperature;humidity
73453;BME280;61687;56.232;43.854;2023-01-13T05:59:45;102036.78;;;-7.38;81.81
73453;BME280;61687;56.232;43.854;2023-01-13T06:02:10;102042.50;;;-7.21;82.26
73453;BME280;61687;56.232;43.854;2023-01-13T06:04:36;102038.59;;;-6.98;82.02
73453;BME280;61687;56.232;43.854;2023-01-13T06:07:02;102050.69;;;-6.75;81.98
73453;BME280;61687;56.232;43.854;2023-01-13T06:09:28;102043.69;;;-6.56;79.06
73453;BME280;61687;56.232;43.854;2023-01-13T06:11:54;102049.56;;;-6.40;77.98
73453;BME280;61687;56.232;43.854;2023-01-13T06:14:20;102049.38;;;-6.32;77.44
73453;BME280;61687;56.232;43.854;2023-01-13T06:16:45;102039.72;;;-6.33;76.96
73453;BME280;61687;56.232;43.854;2023-01-13T06:19:11;102046.03;;;-6.21;76.05
73453;BME280;61687;56.232;43.854;2023-01-13T06:21:38;102047.03;;;-6.15;76.36
73453;BME280;61687;56.232;43.854;2023-01-13T06:24:05;102045.34;;;-6.02;75.75
73453;BME280;61687;56.232;43.854;2023-01-13T06:26:38;102044.75;;;-6.05;74.61
73453;BME280;61687;56.232;43.854;2023-01-13T06:29:05;102039.19;;;-6.03;74.25
73453;BME280;61687;56.232;43.854;2023-01-13T06:31:34;102042.09;;;-6.05;74.13
73453;BME280;61687;56.232;43.854;2023-01-13T06:34:08;102035.06;;;-6.06;74.48
73453;BME280;61687;56.232;43.854;2023-01-13T06:36:39;102034.88;;;-6.04;73.82
73453;BME280;61687;56.232;43.854;2023-01-13T06:39:08;102037.91;;;-6.00;74.02
73453;BME280;61687;56.232;43.854;2023-01-13T06:41:36;102029.91;;;-6.00;72.93
73453;BME280;61687;56.232;43.854;2023-01-13T06:44:22;102029.53;;;-6.04;73.77
73453;BME280;61687;56.232;43.854;2023-01-13T06:46:48;102025.38;;;-6.00;73.46
73453;BME280;61687;56.232;43.854;2023-01-13T06:49:15;102027.41;;;-5.95;73.61
73453;BME280;61687;56.232;43.854;2023-01-13T06:51:41;102032.94;;;-5.90;72.88
73453;BME280;61687;56.232;43.854;2023-01-13T06:54:07;102033.09;;;-5.85;73.13
73453;BME280;61687;56.232;43.854;2023-01-13T06:56:33;102040.88;;;-5.77;73.18
73453;BME280;61687;56.232;43.854;2023-01-13T06:58:59;102039.44;;;-5.79;72.46
73453;BME280;61687;56.232;43.854;2023-01-13T07:01:24;102041.75;;;-5.83;72.39
73453;BME280;61687;56.232;43.854;2023-01-13T07:03:50;102029.63;;;-5.85;72.48
73453;BME280;61687;56.232;43.854;2023-01-13T07:06:16;102026.56;;;-5.89;72.49
73453;BME280;61687;56.232;43.854;2023-01-13T07:08:42;102034.72;;;-5.84;72.41
73453;BME280;61687;56.232;43.854;2023-01-13T07:11:07;102024.06;;;-5.84;72.15
73453;BME280;61687;56.232;43.854;2023-01-13T07:13:34;102030.22;;;-5.83;72.14
73453;BME280;61687;56.232;43.854;2023-01-13T07:16:18;102025.47;;;-5.75;72.46
73453;BME280;61687;56.232;43.854;2023-01-13T07:18:44;102034.28;;;-5.74;72.03
73453;BME280;61687;56.232;43.854;2023-01-13T07:21:11;102027.53;;;-5.77;72.43
73453;BME280;61687;56.232;43.854;2023-01-13T07:23:43;102013.34;;;-5.77;72.04
73453;BME280;61687;56.232;43.854;2023-01-13T07:26:09;102019.88;;;-5.73;71.99
73453;BME280;61687;56.232;43.854;2023-01-13T07:28:36;102014.97;;;-5.76;71.80
73453;BME280;61687;56.232;43.854;2023-01-13T07:31:03;102009.59;;;-5.69;71.97
73453;BME280;61687;56.232;43.854;2023-01-13T07:33:29;102012.03;;;-5.61;71.80
73453;BME280;61687;56.232;43.854;2023-01-13T07:36:00;102008.31;;;-5.60;71.52
73453;BME280;61687;56.232;43.854;2023-01-13T07:38:27;102012.63;;;-5.59;71.54
73453;BME280;61687;56.232;43.854;2023-01-13T07:40:53;102006.41;;;-5.53;71.56
73453;BME280;61687;56.232;43.854;2023-01-13T07:43:19;102009.84;;;-5.46;70.65
73453;BME280;61687;56.232;43.854;2023-01-13T07:45:59;102002.25;;;-5.49;71.17
73453;BME280;61687;56.232;43.854;2023-01-13T07:48:26;102002.44;;;-5.43;71.08
73453;BME280;61687;56.232;43.854;2023-01-13T07:50:52;102001.47;;;-5.49;70.52
73453;BME280;61687;56.232;43.854;2023-01-13T07:53:19;101995.88;;;-5.48;70.83
73453;BME280;61687;56.232;43.854;2023-01-13T07:55:45;101997.91;;;-5.43;71.08
73453;BME280;61687;56.232;43.854;2023-01-13T07:58:10;101995.75;;;-5.27;70.69
73453;BME280;61687;56.232;43.854;2023-01-13T08:00:37;101993.22;;;-5.22;70.70
73453;BME280;61687;56.232;43.854;2023-01-13T08:03:03;102001.78;;;-5.13;70.56
73453;BME280;61687;56.232;43.854;2023-01-13T08:05:30;101992.69;;;-5.06;70.13
73453;BME280;61687;56.232;43.854;2023-01-13T08:07:56;101996.53;;;-5.01;70.04
73453;BME280;61687;56.232;43.854;2023-01-13T08:10:22;101990.16;;;-5.00;70.41
73453;BME280;61687;56.232;43.854;2023-01-13T08:12:47;101983.47;;;-4.91;69.97
73453;BME280;61687;56.232;43.854;2023-01-13T08:15:32;101987.19;;;-4.92;70.08
73453;BME280;61687;56.232;43.854;2023-01-13T08:17:59;101987.13;;;-4.85;69.99
73453;BME280;61687;56.232;43.854;2023-01-13T08:20:25;101993.31;;;-4.85;69.84
73453;BME280;61687;56.232;43.854;2023-01-13T08:22:58;101992.09;;;-4.89;70.04
73453;BME280;61687;56.232;43.854;2023-01-13T08:25:25;101985.94;;;-4.90;69.86
73453;BME280;61687;56.232;43.854;2023-01-13T08:27:52;101989.06;;;-4.93;70.17
73453;BME280;61687;56.232;43.854;2023-01-13T08:30:18;101986.13;;;-4.91;70.04
73453;BME280;61687;56.232;43.854;2023-01-13T08:32:45;101987.78;;;-4.90;70.20
73453;BME280;61687;56.232;43.854;2023-01-13T08:35:12;101994.88;;;-4.77;70.38
73453;BME280;61687;56.232;43.854;2023-01-13T08:37:38;101998.19;;;-4.82;70.04
73453;BME280;61687;56.232;43.854;2023-01-13T08:40:04;101993.91;;;-4.83;70.12
73453;BME280;61687;56.232;43.854;2023-01-13T08:42:31;101995.97;;;-4.85;70.06
73453;BME280;61687;56.232;43.854;2023-01-13T08:44:57;101982.22;;;-4.89;69.97
73453;BME280;61687;56.232;43.854;2023-01-13T08:47:23;101980.00;;;-4.92;70.15
73453;BME280;61687;56.232;43.854;2023-01-13T08:49:49;101989.25;;;-4.94;69.98
73453;BME280;61687;56.232;43.854;2023-01-13T08:52:15;101985.78;;;-4.95;70.31
73453;BME280;61687;56.232;43.854;2023-01-13T08:54:41;101986.53;;;-4.88;70.56
73453;BME280;61687;56.232;43.854;2023-01-13T08:57:06;101981.91;;;-4.80;70.26
73453;BME280;61687;56.232;43.854;2023-01-13T08:59:33;101976.28;;;-4.72;70.03
73453;BME280;61687;56.232;43.854;2023-01-13T09:01:59;101976.75;;;-4.75;69.83
73453;BME280;61687;56.232;43.854;2023-01-13T09:04:26;101964.41;;;-4.76;70.10
73453;BME280;61687;56.232;43.854;2023-01-13T09:06:53;101975.59;;;-4.67;69.89
73453;BME280;61687;56.232;43.854;2023-01-13T09:09:20;101960.31;;;-4.60;69.60
73453;BME280;61687;56.232;43.854;2023-01-13T09:11:48;101958.69;;;-4.61;69.47
73453;BME280;61687;56.232;43.854;2023-01-13T09:14:36;101960.25;;;-4.72;69.80
73453;BME280;61687;56.232;43.854;2023-01-13T09:17:02;101954.91;;;-4.72;69.84
73453;BME280;61687;56.232;43.854;2023-01-13T09:19:29;101958.31;;;-4.65;69.63
73453;BME280;61687;56.232;43.854;2023-01-13T09:21:55;101951.78;;;-4.69;70.00
73453;BME280;61687;56.232;43.854;2023-01-13T09:24:22;101941.94;;;-4.56;69.77
73453;BME280;61687;56.232;43.854;2023-01-13T09:26:48;101944.84;;;-4.58;69.51
73453;BME280;61687;56.232;43.854;2023-01-13T09:29:15;101951.25;;;-4.59;69.54
73453;BME280;61687;56.232;43.854;2023-01-13T09:31:41;101955.09;;;-4.55;69.66
73453;BME280;61687;56.232;43.854;2023-01-13T09:34:12;101940.91;;;-4.55;69.93
73453;BME280;61687;56.232;43.854;2023-01-13T09:36:58;101947.59;;;-4.46;69.66
73453;BME280;61687;56.232;43.854;2023-01-13T09:39:24;101945.03;;;-4.41;69.45
73453;BME280;61687;56.232;43.854;2023-01-13T09:41:52;101946.09;;;-4.42;69.33
73453;BME280;61687;56.232;43.854;2023-01-13T09:47:24;101935.97;;;-4.40;69.56
73453;BME280;61687;56.232;43.854;2023-01-13T09:49:53;101937.34;;;-4.49;69.67
73453;BME280;61687;56.232;43.854;2023-01-13T09:52:23;101935.63;;;-4.43;69.82
73453;BME280;61687;56.232;43.854;2023-01-13T09:55:01;101946.31;;;-4.43;69.79
73453;BME280;61687;56.232;43.854;2023-01-13T09:57:33;101936.28;;;-4.48;69.94
73453;BME280;61687;56.232;43.854;2023-01-13T10:00:01;101925.81;;;-4.50;70.33
73453;BME280;61687;56.232;43.854;2023-01-13T10:08:12;101943.78;;;-4.38;70.03
73453;BME280;61687;56.232;43.854;2023-01-13T10:10:43;101940.53;;;-4.40;69.91
73453;BME280;61687;56.232;43.854;2023-01-13T10:16:05;101947.13;;;-4.43;70.48
73453;BME280;61687;56.232;43.854;2023-01-13T10:27:33;101922.25;;;-4.43;70.40
73453;BME280;61687;56.232;43.854;2023-01-13T10:30:33;101934.22;;;-4.46;70.91
73453;BME280;61687;56.232;43.854;2023-01-13T10:33:08;101919.13;;;-4.40;70.61
73453;BME280;61687;56.232;43.854;2023-01-13T10:35:58;101911.22;;;-4.35;70.44
73453;BME280;61687;56.232;43.854;2023-01-13T10:40:53;101913.75;;;-4.40;70.89
73453;BME280;61687;56.232;43.854;2023-01-13T10:43:20;101915.03;;;-4.43;70.91
73453;BME280;61687;56.232;43.854;2023-01-13T10:46:19;101917.09;;;-4.45;70.89
73453;BME280;61687;56.232;43.854;2023-01-13T10:49:22;101932.25;;;-4.39;70.98
73453;BME280;61687;56.232;43.854;2023-01-13T10:51:44;101926.09;;;-4.39;70.94
73453;BME280;61687;56.232;43.854;2023-01-13T10:56:38;101925.72;;;-4.43;71.28
73453;BME280;61687;56.232;43.854;2023-01-13T10:59:20;101924.00;;;-4.37;71.04
73453;BME280;61687;56.232;43.854;2023-01-13T11:04:38;101925.78;;;-4.31;71.17
73453;BME280;61687;56.232;43.854;2023-01-13T11:07:17;101926.44;;;-4.36;70.95
73453;BME280;61687;56.232;43.854;2023-01-13T11:09:45;101931.78;;;-4.36;70.85
73453;BME280;61687;56.232;43.854;2023-01-13T11:12:32;101924.38;;;-4.34;70.96
73453;BME280;61687;56.232;43.854;2023-01-13T11:15:04;101923.94;;;-4.31;71.13
73453;BME280;61687;56.232;43.854;2023-01-13T11:20:41;101922.84;;;-4.11;70.68
73453;BME280;61687;56.232;43.854;2023-01-13T11:23:20;101923.25;;;-4.14;70.92
73453;BME280;61687;56.232;43.854;2023-01-13T11:25:55;101928.63;;;-4.14;70.90
73453;BME280;61687;56.232;43.854;2023-01-13T11:28:59;101919.56;;;-4.13;70.88
73453;BME280;61687;56.232;43.854;2023-01-13T11:31:42;101923.06;;;-4.12;70.80
73453;BME280;61687;56.232;43.854;2023-01-13T11:34:43;101925.81;;;-4.19;71.04
73453;BME280;61687;56.232;43.854;2023-01-13T11:37:31;101916.94;;;-4.32;71.34
73453;BME280;61687;56.232;43.854;2023-01-13T11:40:11;101919.03;;;-4.34;71.61
73453;BME280;61687;56.232;43.854;2023-01-13T11:45:35;101921.84;;;-4.28;71.59
73453;BME280;61687;56.232;43.854;2023-01-13T11:48:04;101915.31;;;-4.33;71.66
73453;BME280;61687;56.232;43.854;2023-01-13T11:50:40;101910.53;;;-4.31;71.82
73453;BME280;61687;56.232;43.854;2023-01-13T11:58:50;101909.00;;;-4.38;72.07
73453;BME280;61687;56.232;43.854;2023-01-13T12:04:18;101923.47;;;-4.27;71.97
73453;BME280;61687;56.232;43.854;2023-01-13T12:06:48;101914.84;;;-4.29;71.64
73453;BME280;61687;56.232;43.854;2023-01-13T12:09:31;101914.56;;;-4.40;72.11
73453;BME280;61687;56.232;43.854;2023-01-13T12:20:49;101909.41;;;-4.53;72.51
73453;BME280;61687;56.232;43.854;2023-01-13T12:23:22;101909.41;;;-4.53;72.75
73453;BME280;61687;56.232;43.854;2023-01-13T12:25:54;101903.00;;;-4.52;72.87
73453;BME280;61687;56.232;43.854;2023-01-13T12:28:27;101898.31;;;-4.57;72.90
73453;BME280;61687;56.232;43.854;2023-01-13T12:31:01;101895.44;;;-4.55;73.13
73453;BME280;61687;56.232;43.854;2023-01-13T12:47:39;101900.41;;;-4.59;73.29
73453;BME280;61687;56.232;43.854;2023-01-13T12:52:58;101908.19;;;-4.57;73.26
73453;BME280;61687;56.232;43.854;2023-01-13T13:06:12;101899.13;;;-4.56;73.10
73453;BME280;61687;56.232;43.854;2023-01-13T13:08:56;101902.41;;;-4.54;73.10
73453;BME280;61687;56.232;43.854;2023-01-13T13:11:41;101906.94;;;-4.55;73.22
73453;BME280;61687;56.232;43.854;2023-01-13T13:19:56;101911.03;;;-4.52;73.18
73453;BME280;61687;56.232;43.854;2023-01-13T13:27:37;101915.28;;;-4.63;73.63
73453;BME280;61687;56.232;43.854;2023-01-13T13:30:14;101914.47;;;-4.64;73.79
73453;BME280;61687;56.232;43.854;2023-01-13T13:38:24;101904.19;;;-4.48;73.40
73453;BME280;61687;56.232;43.854;2023-01-13T13:41:18;101911.38;;;-4.49;73.40
73453;BME280;61687;56.232;43.854;2023-01-13T13:44:16;101914.50;;;-4.52;73.57
73453;BME280;61687;56.232;43.854;2023-01-13T13:47:03;101910.97;;;-4.46;73.51
73453;BME280;61687;56.232;43.854;2023-01-13T13:49:39;101906.03;;;-4.49;73.61
73453;BME280;61687;56.232;43.854;2023-01-13T13:54:38;101912.22;;;-4.48;73.74
73453;BME280;61687;56.232;43.854;2023-01-13T13:57:15;101915.09;;;-4.50;73.81
73453;BME280;61687;56.232;43.854;2023-01-13T13:59:41;101909.66;;;-4.43;73.83
73453;BME280;61687;56.232;43.854;2023-01-13T14:02:16;101904.69;;;-4.39;73.61
73453;BME280;61687;56.232;43.854;2023-01-13T14:04:43;101911.69;;;-4.38;73.68
73453;BME280;61687;56.232;43.854;2023-01-13T14:07:19;101912.03;;;-4.35;73.50
73453;BME280;61687;56.232;43.854;2023-01-13T14:09:49;101909.66;;;-4.43;73.61
73453;BME280;61687;56.232;43.854;2023-01-13T14:12:24;101911.31;;;-4.42;73.92
73453;BME280;61687;56.232;43.854;2023-01-13T14:14:51;101911.09;;;-4.40;73.78
73453;BME280;61687;56.232;43.854;2023-01-13T14:17:23;101914.56;;;-4.40;73.82
73453;BME280;61687;56.232;43.854;2023-01-13T14:19:58;101912.47;;;-4.38;73.66
73453;BME280;61687;56.232;43.854;2023-01-13T14:22:25;101911.22;;;-4.35;73.78
73453;BME280;61687;56.232;43.854;2023-01-13T14:24:51;101908.31;;;-4.34;73.79
73453;BME280;61687;56.232;43.854;2023-01-13T14:27:24;101907.41;;;-4.27;73.79
73453;BME280;61687;56.232;43.854;2023-01-13T14:29:57;101912.31;;;-4.24;73.59
73453;BME280;61687;56.232;43.854;2023-01-13T14:32:31;101909.03;;;-4.26;73.63
73453;BME280;61687;56.232;43.854;2023-01-13T14:34:59;101919.75;;;-4.26;73.57
73453;BME280;61687;56.232;43.854;2023-01-13T14:39:53;101913.00;;;-4.17;73.52
73453;BME280;61687;56.232;43.854;2023-01-13T14:42:19;101919.31;;;-4.11;73.30
73453;BME280;61687;56.232;43.854;2023-01-13T14:44:49;101915.00;;;-4.12;73.20
73453;BME280;61687;56.232;43.854;2023-01-13T14:52:22;101915.47;;;-4.15;73.18
73453;BME280;61687;56.232;43.854;2023-01-13T14:54:53;101911.38;;;-4.18;73.26
73453;BME280;61687;56.232;43.854;2023-01-13T15:02:46;101907.78;;;-4.24;73.52
73453;BME280;61687;56.232;43.854;2023-01-13T15:10:25;101916.75;;;-4.18;73.50
73453;BME280;61687;56.232;43.854;2023-01-13T15:12:54;101911.84;;;-4.21;73.61
73453;BME280;61687;56.232;43.854;2023-01-13T15:15:24;101916.63;;;-4.23;73.53
73453;BME280;61687;56.232;43.854;2023-01-13T15:17:52;101916.47;;;-4.28;73.77
73453;BME280;61687;56.232;43.854;2023-01-13T15:20:20;101915.44;;;-4.27;74.06
73453;BME280;61687;56.232;43.854;2023-01-13T15:22:47;101913.13;;;-4.24;73.79
73453;BME280;61687;56.232;43.854;2023-01-13T15:25:13;101908.00;;;-4.25;73.73
73453;BME280;61687;56.232;43.854;2023-01-13T15:27:40;101911.25;;;-4.23;73.78
73453;BME280;61687;56.232;43.854;2023-01-13T15:30:14;101911.03;;;-4.22;73.99
73453;BME280;61687;56.232;43.854;2023-01-13T15:32:41;101909.53;;;-4.18;73.84
73453;BME280;61687;56.232;43.854;2023-01-13T15:35:11;101899.63;;;-4.17;73.75
73453;BME280;61687;56.232;43.854;2023-01-13T15:37:37;101900.69;;;-4.18;73.93
73453;BME280;61687;56.232;43.854;2023-01-13T15:40:03;101902.56;;;-4.19;73.79
73453;BME280;61687;56.232;43.854;2023-01-13T15:42:29;101904.41;;;-4.19;73.97
73453;BME280;61687;56.232;43.854;2023-01-13T15:45:13;101906.41;;;-4.14;73.89
73453;BME280;61687;56.232;43.854;2023-01-13T15:47:58;101901.84;;;-4.14;73.82
73453;BME280;61687;56.232;43.854;2023-01-13T15:50:24;101904.97;;;-4.17;74.03
73453;BME280;61687;56.232;43.854;2023-01-13T15:52:50;101917.31;;;-4.16;73.93
73453;BME280;61687;56.232;43.854;2023-01-13T15:55:16;101918.84;;;-4.20;74.04
73453;BME280;61687;56.232;43.854;2023-01-13T15:57:47;101909.75;;;-4.19;74.15
73453;BME280;61687;56.232;43.854;2023-01-13T16:00:19;101920.59;;;-4.14;74.00
73453;BME280;61687;56.232;43.854;2023-01-13T16:02:47;101930.28;;;-4.13;74.13
73453;BME280;61687;56.232;43.854;2023-01-13T16:05:13;101925.28;;;-4.09;73.76
73453;BME280;61687;56.232;43.854;2023-01-13T16:07:39;101934.13;;;-4.09;73.85
73453;BME280;61687;56.232;43.854;2023-01-13T16:10:13;101912.94;;;-4.10;73.92
73453;BME280;61687;56.232;43.854;2023-01-13T16:12:40;101925.63;;;-4.06;73.95
73453;BME280;61687;56.232;43.854;2023-01-13T16:15:06;101928.31;;;-4.06;73.78
73453;BME280;61687;56.232;43.854;2023-01-13T16:17:33;101927.28;;;-4.05;73.86
73453;BME280;61687;56.232;43.854;2023-01-13T16:20:00;101929.47;;;-4.02;73.63
73453;BME280;61687;56.232;43.854;2023-01-13T16:22:25;101922.38;;;-4.08;73.76
73453;BME280;61687;56.232;43.854;2023-01-13T16:24:51;101927.72;;;-4.08;74.02
73453;BME280;61687;56.232;43.854;2023-01-13T16:27:20;101928.41;;;-4.12;74.02
73453;BME280;61687;56.232;43.854;2023-01-13T16:29:46;101918.66;;;-4.07;74.01
73453;BME280;61687;56.232;43.854;2023-01-13T16:32:13;101930.03;;;-4.11;74.15
73453;BME280;61687;56.232;43.854;2023-01-13T16:34:39;101930.28;;;-4.13;74.12
73453;BME280;61687;56.232;43.854;2023-01-13T16:37:24;101930.41;;;-4.08;74.12
73453;BME280;61687;56.232;43.854;2023-01-13T16:39:52;101921.34;;;-4.07;74.04
73453;BME280;61687;56.232;43.854;2023-01-13T16:42:19;101931.00;;;-4.06;74.01
73453;BME280;61687;56.232;43.854;2023-01-13T16:44:46;101929.22;;;-4.12;74.04
73453;BME280;61687;56.232;43.854;2023-01-13T16:47:15;101942.38;;;-4.10;74.04
73453;BME280;61687;56.232;43.854;2023-01-13T16:49:41;101925.94;;;-4.14;74.12
73453;BME280;61687;56.232;43.854;2023-01-13T16:52:07;101920.59;;;-4.14;74.49
73453;BME280;61687;56.232;43.854;2023-01-13T16:54:33;101927.94;;;-4.09;74.29
73453;BME280;61687;56.232;43.854;2023-01-13T16:56:59;101929.00;;;-4.10;74.08
73453;BME280;61687;56.232;43.854;2023-01-13T16:59:25;101930.28;;;-4.13;74.34
73453;BME280;61687;56.232;43.854;2023-01-13T17:01:51;101920.00;;;-4.16;74.44
73453;BME280;61687;56.232;43.854;2023-01-13T17:04:20;101918.28;;;-4.10;74.35
73453;BME280;61687;56.232;43.854;2023-01-13T17:06:59;101916.34;;;-4.03;74.26
73453;BME280;61687;56.232;43.854;2023-01-13T17:09:28;101924.25;;;-3.96;74.08
73453;BME280;61687;56.232;43.854;2023-01-13T17:11:55;101919.34;;;-3.99;73.94
73453;BME280;61687;56.232;43.854;2023-01-13T17:14:21;101917.13;;;-4.03;73.92
73453;BME280;61687;56.232;43.854;2023-01-13T17:16:50;101920.41;;;-4.00;74.21
73453;BME280;61687;56.232;43.854;2023-01-13T17:19:16;101904.81;;;-4.04;73.89
73453;BME280;61687;56.232;43.854;2023-01-13T17:21:43;101902.59;;;-4.07;73.99
73453;BME280;61687;56.232;43.854;2023-01-13T17:24:09;101909.31;;;-4.04;74.10
73453;BME280;61687;56.232;43.854;2023-01-13T17:26:45;101910.25;;;-4.10;74.25
73453;BME280;61687;56.232;43.854;2023-01-13T17:29:22;101907.09;;;-4.07;74.32
73453;BME280;61687;56.232;43.854;2023-01-13T17:31:51;101906.78;;;-4.11;74.37
73453;BME280;61687;56.232;43.854;2023-01-13T17:34:18;101914.56;;;-4.09;74.47
73453;BME280;61687;56.232;43.854;2023-01-13T17:36:44;101916.91;;;-4.13;74.76
73453;BME280;61687;56.232;43.854;2023-01-13T17:39:30;101918.19;;;-4.04;74.11
73453;BME280;61687;56.232;43.854;2023-01-13T17:41:56;101915.97;;;-4.07;74.26
73453;BME280;61687;56.232;43.854;2023-01-13T17:44:22;101911.00;;;-4.03;74.22
73453;BME280;61687;56.232;43.854;2023-01-13T17:46:48;101909.09;;;-4.03;74.24
73453;BME280;61687;56.232;43.854;2023-01-13T17:49:17;101917.03;;;-4.08;74.26
73453;BME280;61687;56.232;43.854;2023-01-13T17:51:43;101911.38;;;-4.18;74.55
73453;BME280;61687;56.232;43.854;2023-01-13T17:54:13;101910.59;;;-4.19;74.52
73453;BME280;61687;56.232;43.854;2023-01-13T17:56:40;101913.97;;;-4.11;74.52
73453;BME280;61687;56.232;43.854;2023-01-13T17:59:07;101915.97;;;-4.07;74.45
73453;BME280;61687;56.232;43.854;2023-01-13T18:01:33;101916.44;;;-4.10;74.53
73453;BME280;61687;56.232;43.854;2023-01-13T18:03:59;101911.31;;;-3.99;74.33
73453;BME280;61687;56.232;43.854;2023-01-13T18:06:25;101914.84;;;-3.99;74.34
73453;BME280;61687;56.232;43.854;2023-01-13T18:08:52;101911.91;;;-3.97;74.22
73453;BME280;61687;56.232;43.854;2023-01-13T18:11:20;101919.16;;;-3.98;74.33
73453;BME280;61687;56.232;43.854;2023-01-13T18:13:51;101913.53;;;-3.96;74.45
73453;BME280;61687;56.232;43.854;2023-01-13T18:16:27;101912.66;;;-3.90;74.24
73453;BME280;61687;56.232;43.854;2023-01-13T18:18:54;101917.84;;;-3.95;74.15
73453;BME280;61687;56.232;43.854;2023-01-13T18:21:39;101929.59;;;-3.96;74.40
73453;BME280;61687;56.232;43.854;2023-01-13T18:24:24;101926.94;;;-3.96;74.34
73453;BME280;61687;56.232;43.854;2023-01-13T18:27:11;101932.88;;;-3.94;74.22
73453;BME280;61687;56.232;43.854;2023-01-13T18:29:44;101933.78;;;-4.00;74.40
73453;BME280;61687;56.232;43.854;2023-01-13T18:32:11;101936.94;;;-4.04;74.62
73453;BME280;61687;56.232;43.854;2023-01-13T18:34:37;101940.44;;;-4.03;74.67
73453;BME280;61687;56.232;43.854;2023-01-13T18:37:05;101929.16;;;-3.93;74.35
73453;BME280;61687;56.232;43.854;2023-01-13T18:39:31;101925.66;;;-3.94;74.42
73453;BME280;61687;56.232;43.854;2023-01-13T18:41:57;101941.28;;;-3.91;74.40
73453;BME280;61687;56.232;43.854;2023-01-13T18:44:42;101945.00;;;-3.92;74.57
73453;BME280;61687;56.232;43.854;2023-01-13T18:47:08;101946.41;;;-3.89;74.29
73453;BME280;61687;56.232;43.854;2023-01-13T18:49:34;101948.13;;;-3.95;74.39
73453;BME280;61687;56.232;43.854;2023-01-13T18:52:01;101948.03;;;-3.88;74.59
73453;BME280;61687;56.232;43.854;2023-01-13T18:54:27;101946.06;;;-3.81;74.16
73453;BME280;61687;56.232;43.854;2023-01-13T18:56:52;101940.50;;;-3.79;74.12
73453;BME280;61687;56.232;43.854;2023-01-13T18:59:18;101941.75;;;-3.82;73.96
73453;BME280;61687;56.232;43.854;2023-01-13T19:01:44;101939.31;;;-3.83;73.95
73453;BME280;61687;56.232;43.854;2023-01-13T19:04:15;101939.19;;;-3.89;74.14
73453;BME280;61687;56.232;43.854;2023-01-13T19:06:45;101944.53;;;-3.89;74.13
73453;BME280;61687;56.232;43.854;2023-01-13T19:09:26;101944.19;;;-3.92;74.26
73453;BME280;61687;56.232;43.854;2023-01-13T19:11:54;101944.78;;;-3.90;74.27
73453;BME280;61687;56.232;43.854;2023-01-13T19:14:21;101938.13;;;-3.88;74.18
73453;BME280;61687;56.232;43.854;2023-01-13T19:17:10;101937.47;;;-3.83;74.01
73453;BME280;61687;56.232;43.854;2023-01-13T19:19:50;101937.25;;;-3.81;73.90
73453;BME280;61687;56.232;43.854;2023-01-13T19:22:20;101935.16;;;-3.79;73.87
73453;BME280;61687;56.232;43.854;2023-01-13T19:24:48;101939.53;;;-3.85;73.72
73453;BME280;61687;56.232;43.854;2023-01-13T19:27:16;101932.88;;;-3.94;73.95
73453;BME280;61687;56.232;43.854;2023-01-13T19:29:43;101938.09;;;-3.99;74.04
73453;BME280;61687;56.232;43.854;2023-01-13T19:32:09;101939.03;;;-4.06;74.35
73453;BME280;61687;56.232;43.854;2023-01-13T19:34:35;101940.44;;;-4.03;74.19
73453;BME280;61687;56.232;43.854;2023-01-13T19:37:01;101932.72;;;-4.11;74.35
73453;BME280;61687;56.232;43.854;2023-01-13T19:39:29;101933.63;;;-4.18;74.85
73453;BME280;61687;56.232;43.854;2023-01-13T19:41:55;101933.25;;;-4.21;74.99
73453;BME280;61687;56.232;43.854;2023-01-13T19:44:39;101931.16;;;-4.19;74.64
73453;BME280;61687;56.232;43.854;2023-01-13T19:47:24;101932.31;;;-4.27;74.95
73453;BME280;61687;56.232;43.854;2023-01-13T19:49:50;101928.38;;;-4.24;74.86
73453;BME280;61687;56.232;43.854;2023-01-13T19:52:16;101932.88;;;-4.25;74.85
73453;BME280;61687;56.232;43.854;2023-01-13T19:54:45;101933.25;;;-4.21;74.83
73453;BME280;61687;56.232;43.854;2023-01-13T19:57:12;101941.97;;;-4.26;74.85
73453;BME280;61687;56.232;43.854;2023-01-13T19:59:39;101945.47;;;-4.25;74.98
73453;BME280;61687;56.232;43.854;2023-01-13T20:02:16;101946.06;;;-4.23;74.93
73453;BME280;61687;56.232;43.854;2023-01-13T20:04:54;101952.59;;;-4.19;74.76
73453;BME280;61687;56.232;43.854;2023-01-13T20:07:21;101944.34;;;-4.18;74.85
73453;BME280;61687;56.232;43.854;2023-01-13T20:09:49;101942.72;;;-4.19;74.72
73453;BME280;61687;56.232;43.854;2023-01-13T20:12:16;101943.97;;;-4.21;74.91
73453;BME280;61687;56.232;43.854;2023-01-13T20:14:42;101948.88;;;-4.18;74.86
73453;BME280;61687;56.232;43.854;2023-01-13T20:17:14;101942.34;;;-4.22;74.72
73453;BME280;61687;56.232;43.854;2023-01-13T20:19:40;101938.16;;;-4.18;74.70
73453;BME280;61687;56.232;43.854;2023-01-13T20:22:07;101943.16;;;-4.22;75.07
73453;BME280;61687;56.232;43.854;2023-01-13T20:24:33;101944.34;;;-4.18;75.07
73453;BME280;61687;56.232;43.854;2023-01-13T20:26:59;101938.03;;;-4.23;75.06
73453;BME280;61687;56.232;43.854;2023-01-13T20:29:26;101933.94;;;-4.26;75.18
73453;BME280;61687;56.232;43.854;2023-01-13T20:31:53;101933.50;;;-4.23;75.05
73453;BME280;61687;56.232;43.854;2023-01-13T20:34:19;101939.44;;;-4.21;75.03
73453;BME280;61687;56.232;43.854;2023-01-13T20:36:46;101948.06;;;-4.19;75.04
73453;BME280;61687;56.232;43.854;2023-01-13T20:39:18;101948.16;;;-4.25;75.11
73453;BME280;61687;56.232;43.854;2023-01-13T20:41:44;101939.06;;;-4.24;75.22
73453;BME280;61687;56.232;43.854;2023-01-13T20:44:29;101945.84;;;-4.22;75.20
73453;BME280;61687;56.232;43.854;2023-01-13T20:46:55;101941.63;;;-4.29;75.45
73453;BME280;61687;56.232;43.854;2023-01-13T20:49:23;101947.56;;;-4.27;75.52
73453;BME280;61687;56.232;43.854;2023-01-13T20:51:49;101957.13;;;-4.20;75.53